sensor_id;sensor_type;location;lat;lon;timestamp;temperature;humidity
10390;DHT22;5241;47.830;12.972;2022-10-31T00:00:06;9.40;99.90
10390;DHT22;5241;47.830;12.972;2022-10-31T00:02:32;9.30;99.90
10390;DHT22;5241;47.830;12.972;2022-10-31T00:04:57;9.30;99.90
10390;DHT22;5241;47.830;12.972;2022-10-31T00:07:23;9.30;99.90
10390;DHT22;5241;47.830;12.972;2022-10-31T00:09:48;9.30;99.90
10390;DHT22;5241;47.830;12.972;2022-10-31T00:12:14;9.30;99.90
10390;DHT22;5241;47.830;12.972;2022-10-31T00:14:39;9.30;99.90
10390;DHT22;5241;47.830;12.972;2022-10-31T00:17:05;9.30;99.90
10390;DHT22;5241;47.830;12.972;2022-10-31T00:19:30;9.30;99.90
10390;DHT22;5241;47.830;12.972;2022-10-31T00:21:56;9.30;99.90
10390;DHT22;5241;47.830;12.972;2022-10-31T00:24:21;9.30;99.90
10390;DHT22;5241;47.830;12.972;2022-10-31T00:26:47;9.30;99.90
10390;DHT22;5241;47.830;12.972;2022-10-31T00:29:12;9.20;99.90
10390;DHT22;5241;47.830;12.972;2022-10-31T00:31:38;9.20;99.90
10390;DHT22;5241;47.830;12.972;2022-10-31T00:34:04;9.10;99.90
10390;DHT22;5241;47.830;12.972;2022-10-31T00:36:29;9.10;99.90
10390;DHT22;5241;47.830;12.972;2022-10-31T00:38:55;9.20;99.90
10390;DHT22;5241;47.830;12.972;2022-10-31T00:41:21;9.00;99.90
10390;DHT22;5241;47.830;12.972;2022-10-31T00:43:46;8.90;99.90
10390;DHT22;5241;47.830;12.972;2022-10-31T00:46:12;8.80;99.90
10390;DHT22;5241;47.830;12.972;2022-10-31T00:48:38;8.70;99.90
10390;DHT22;5241;47.830;12.972;2022-10-31T00:51:04;8.70;99.90
10390;DHT22;5241;47.830;12.972;2022-10-31T00:53:30;8.80;99.90
10390;DHT22;5241;47.830;12.972;2022-10-31T00:55:55;8.80;99.90
10390;DHT22;5241;47.830;12.972;2022-10-31T00:58:21;8.80;99.90
10390;DHT22;5241;47.830;12.972;2022-10-31T01:00:48;8.80;99.90
10390;DHT22;5241;47.830;12.972;2022-10-31T01:03:23;8.70;99.90
10390;DHT22;5241;47.830;12.972;2022-10-31T01:06:10;8.70;99.90
10390;DHT22;5241;47.830;12.972;2022-10-31T01:08:37;8.70;99.90
10390;DHT22;5241;47.830;12.972;2022-10-31T01:11:22;8.70;99.90
10390;DHT22;5241;47.830;12.972;2022-10-31T01:13:50;8.80;99.90
10390;DHT22;5241;47.830;12.972;2022-10-31T01:16:18;8.70;99.90
10390;DHT22;5241;47.830;12.972;2022-10-31T01:18:44;8.70;99.90
10390;DHT22;5241;47.830;12.972;2022-10-31T01:21:11;8.70;99.90
10390;DHT22;5241;47.830;12.972;2022-10-31T01:23:37;8.60;99.90
10390;DHT22;5241;47.830;12.972;2022-10-31T01:26:06;8.60;99.90
10390;DHT22;5241;47.830;12.972;2022-10-31T01:28:33;8.60;99.90
10390;DHT22;5241;47.830;12.972;2022-10-31T01:31:07;8.60;99.90
10390;DHT22;5241;47.830;12.972;2022-10-31T01:33:34;8.50;99.90
10390;DHT22;5241;47.830;12.972;2022-10-31T01:35:59;8.50;99.90
10390;DHT22;5241;47.830;12.972;2022-10-31T01:38:25;8.60;99.90
10390;DHT22;5241;47.830;12.972;2022-10-31T01:40:51;8.50;99.90
10390;DHT22;5241;47.830;12.972;2022-10-31T01:43:17;8.50;99.90
10390;DHT22;5241;47.830;12.972;2022-10-31T01:45:46;8.40;99.90
10390;DHT22;5241;47.830;12.972;2022-10-31T01:48:18;8.40;99.90
10390;DHT22;5241;47.830;12.972;2022-10-31T01:50:48;8.40;99.90
10390;DHT22;5241;47.830;12.972;2022-10-31T01:53:17;8.40;99.90
10390;DHT22;5241;47.830;12.972;2022-10-31T01:55:44;8.30;99.90
10390;DHT22;5241;47.830;12.972;2022-10-31T01:58:14;8.20;99.90
10390;DHT22;5241;47.830;12.972;2022-10-31T02:00:44;8.20;99.90
10390;DHT22;5241;47.830;12.972;2022-10-31T02:03:11;8.20;99.90
10390;DHT22;5241;47.830;12.972;2022-10-31T02:05:37;8.30;99.90
10390;DHT22;5241;47.830;12.972;2022-10-31T02:08:18;8.20;99.90
10390;DHT22;5241;47.830;12.972;2022-10-31T02:10:44;8.20;99.90
10390;DHT22;5241;47.830;12.972;2022-10-31T02:13:11;8.20;99.90
10390;DHT22;5241;47.830;12.972;2022-10-31T02:15:43;8.20;99.90
10390;DHT22;5241;47.830;12.972;2022-10-31T02:18:09;8.20;99.90
10390;DHT22;5241;47.830;12.972;2022-10-31T02:26:44;8.10;99.90
10390;DHT22;5241;47.830;12.972;2022-10-31T02:44:07;8.10;99.90
10390;DHT22;5241;47.830;12.972;2022-10-31T02:47:01;8.10;99.90
10390;DHT22;5241;47.830;12.972;2022-10-31T02:52:16;8.00;99.90
10390;DHT22;5241;47.830;12.972;2022-10-31T02:54:43;7.90;99.90
10390;DHT22;5241;47.830;12.972;2022-10-31T02:57:09;8.00;99.90
10390;DHT22;5241;47.830;12.972;2022-10-31T02:59:37;7.90;99.90
10390;DHT22;5241;47.830;12.972;2022-10-31T03:07:25;7.80;99.90
10390;DHT22;5241;47.830;12.972;2022-10-31T03:10:03;7.80;99.90
10390;DHT22;5241;47.830;12.972;2022-10-31T03:12:47;7.90;99.90
10390;DHT22;5241;47.830;12.972;2022-10-31T03:15:25;7.80;99.90
10390;DHT22;5241;47.830;12.972;2022-10-31T03:20:41;7.70;99.90
10390;DHT22;5241;47.830;12.972;2022-10-31T03:23:13;7.70;99.90
10390;DHT22;5241;47.830;12.972;2022-10-31T03:25:41;7.70;99.90
10390;DHT22;5241;47.830;12.972;2022-10-31T03:28:11;7.70;99.90
10390;DHT22;5241;47.830;12.972;2022-10-31T03:30:39;7.70;99.90
10390;DHT22;5241;47.830;12.972;2022-10-31T03:33:10;7.70;99.90
10390;DHT22;5241;47.830;12.972;2022-10-31T03:35:42;7.70;99.90
10390;DHT22;5241;47.830;12.972;2022-10-31T03:38:11;7.70;99.90
10390;DHT22;5241;47.830;12.972;2022-10-31T03:40:38;7.60;99.90
10390;DHT22;5241;47.830;12.972;2022-10-31T03:43:08;7.60;99.90
10390;DHT22;5241;47.830;12.972;2022-10-31T03:45:40;7.60;99.90
10390;DHT22;5241;47.830;12.972;2022-10-31T03:48:06;7.50;99.90
10390;DHT22;5241;47.830;12.972;2022-10-31T03:50:56;7.50;99.90
10390;DHT22;5241;47.830;12.972;2022-10-31T03:53:38;7.50;99.90
10390;DHT22;5241;47.830;12.972;2022-10-31T03:56:13;7.40;99.90
10390;DHT22;5241;47.830;12.972;2022-10-31T03:59:10;7.40;99.90
10390;DHT22;5241;47.830;12.972;2022-10-31T04:01:37;7.30;99.90
10390;DHT22;5241;47.830;12.972;2022-10-31T04:04:05;7.40;99.90
10390;DHT22;5241;47.830;12.972;2022-10-31T04:06:31;7.40;99.90
10390;DHT22;5241;47.830;12.972;2022-10-31T04:09:02;7.40;99.90
10390;DHT22;5241;47.830;12.972;2022-10-31T04:11:32;7.40;99.90
10390;DHT22;5241;47.830;12.972;2022-10-31T04:13:59;7.40;99.90
10390;DHT22;5241;47.830;12.972;2022-10-31T04:16:27;7.40;99.90
10390;DHT22;5241;47.830;12.972;2022-10-31T04:18:52;7.30;99.90
10390;DHT22;5241;47.830;12.972;2022-10-31T04:21:18;7.40;99.90
10390;DHT22;5241;47.830;12.972;2022-10-31T04:23:44;7.40;99.90
10390;DHT22;5241;47.830;12.972;2022-10-31T04:26:12;7.30;99.90
10390;DHT22;5241;47.830;12.972;2022-10-31T04:28:38;7.30;99.90
10390;DHT22;5241;47.830;12.972;2022-10-31T04:31:04;7.40;99.90
10390;DHT22;5241;47.830;12.972;2022-10-31T04:33:29;7.40;99.90
10390;DHT22;5241;47.830;12.972;2022-10-31T04:35:55;7.40;99.90
10390;DHT22;5241;47.830;12.972;2022-10-31T04:38:20;7.40;99.90
10390;DHT22;5241;47.830;12.972;2022-10-31T04:40:46;7.40;99.90
10390;DHT22;5241;47.830;12.972;2022-10-31T04:43:11;7.40;99.90
10390;DHT22;5241;47.830;12.972;2022-10-31T04:45:37;7.30;99.90
10390;DHT22;5241;47.830;12.972;2022-10-31T04:48:03;7.30;99.90
10390;DHT22;5241;47.830;12.972;2022-10-31T04:50:29;7.20;99.90
10390;DHT22;5241;47.830;12.972;2022-10-31T04:52:54;7.20;99.90
10390;DHT22;5241;47.830;12.972;2022-10-31T04:55:20;7.10;99.90
10390;DHT22;5241;47.830;12.972;2022-10-31T04:57:49;7.10;99.90
10390;DHT22;5241;47.830;12.972;2022-10-31T05:00:17;7.00;99.90
10390;DHT22;5241;47.830;12.972;2022-10-31T05:02:47;7.00;99.90
10390;DHT22;5241;47.830;12.972;2022-10-31T05:05:14;7.00;99.90
10390;DHT22;5241;47.830;12.972;2022-10-31T05:07:45;7.00;99.90
10390;DHT22;5241;47.830;12.972;2022-10-31T05:10:14;7.00;99.90
10390;DHT22;5241;47.830;12.972;2022-10-31T05:12:47;6.90;99.90
10390;DHT22;5241;47.830;12.972;2022-10-31T05:15:13;7.00;99.90
10390;DHT22;5241;47.830;12.972;2022-10-31T05:17:39;7.00;99.90
10390;DHT22;5241;47.830;12.972;2022-10-31T05:20:05;6.90;99.90
10390;DHT22;5241;47.830;12.972;2022-10-31T05:22:31;6.90;99.90
10390;DHT22;5241;47.830;12.972;2022-10-31T05:24:56;6.90;99.90
10390;DHT22;5241;47.830;12.972;2022-10-31T05:27:22;6.90;99.90
10390;DHT22;5241;47.830;12.972;2022-10-31T05:29:47;6.80;99.90
10390;DHT22;5241;47.830;12.972;2022-10-31T05:32:13;6.80;99.90
10390;DHT22;5241;47.830;12.972;2022-10-31T05:34:38;6.80;99.90
10390;DHT22;5241;47.830;12.972;2022-10-31T05:37:04;6.90;99.90
10390;DHT22;5241;47.830;12.972;2022-10-31T05:39:29;6.80;99.90
10390;DHT22;5241;47.830;12.972;2022-10-31T05:41:55;6.80;99.90
10390;DHT22;5241;47.830;12.972;2022-10-31T05:44:21;6.80;99.90
10390;DHT22;5241;47.830;12.972;2022-10-31T05:46:46;6.80;99.90
10390;DHT22;5241;47.830;12.972;2022-10-31T05:49:12;6.80;99.90
10390;DHT22;5241;47.830;12.972;2022-10-31T05:51:38;6.70;99.90
10390;DHT22;5241;47.830;12.972;2022-10-31T05:54:04;6.70;99.90
10390;DHT22;5241;47.830;12.972;2022-10-31T05:56:30;6.70;99.90
10390;DHT22;5241;47.830;12.972;2022-10-31T05:58:55;6.70;99.90
10390;DHT22;5241;47.830;12.972;2022-10-31T06:01:21;6.70;99.90
10390;DHT22;5241;47.830;12.972;2022-10-31T06:03:47;6.70;99.90
10390;DHT22;5241;47.830;12.972;2022-10-31T06:06:12;6.70;99.90
10390;DHT22;5241;47.830;12.972;2022-10-31T06:08:38;6.70;99.90
10390;DHT22;5241;47.830;12.972;2022-10-31T06:11:04;6.70;99.90
10390;DHT22;5241;47.830;12.972;2022-10-31T06:13:29;6.70;99.90
10390;DHT22;5241;47.830;12.972;2022-10-31T06:15:55;6.80;99.90
10390;DHT22;5241;47.830;12.972;2022-10-31T06:18:20;6.80;99.90
10390;DHT22;5241;47.830;12.972;2022-10-31T06:20:46;6.80;99.90
10390;DHT22;5241;47.830;12.972;2022-10-31T06:23:12;6.80;99.90
10390;DHT22;5241;47.830;12.972;2022-10-31T06:25:37;6.90;99.90
10390;DHT22;5241;47.830;12.972;2022-10-31T06:28:03;6.90;99.90
10390;DHT22;5241;47.830;12.972;2022-10-31T06:30:29;6.90;99.90
10390;DHT22;5241;47.830;12.972;2022-10-31T06:32:54;7.00;99.90
10390;DHT22;5241;47.830;12.972;2022-10-31T06:35:20;7.10;99.90
10390;DHT22;5241;47.830;12.972;2022-10-31T06:37:52;7.20;99.90
10390;DHT22;5241;47.830;12.972;2022-10-31T06:40:18;7.20;99.90
10390;DHT22;5241;47.830;12.972;2022-10-31T06:42:44;7.20;99.90
10390;DHT22;5241;47.830;12.972;2022-10-31T06:45:09;7.30;99.90
10390;DHT22;5241;47.830;12.972;2022-10-31T06:47:35;7.40;99.90
10390;DHT22;5241;47.830;12.972;2022-10-31T06:50:00;7.40;99.90
10390;DHT22;5241;47.830;12.972;2022-10-31T06:52:26;7.50;99.90
10390;DHT22;5241;47.830;12.972;2022-10-31T06:54:51;7.60;99.90
10390;DHT22;5241;47.830;12.972;2022-10-31T06:57:17;7.60;99.90
10390;DHT22;5241;47.830;12.972;2022-10-31T06:59:43;7.60;99.90
10390;DHT22;5241;47.830;12.972;2022-10-31T07:02:12;7.70;99.90
10390;DHT22;5241;47.830;12.972;2022-10-31T07:04:37;7.80;99.90
10390;DHT22;5241;47.830;12.972;2022-10-31T07:07:03;7.80;99.90
10390;DHT22;5241;47.830;12.972;2022-10-31T07:09:29;7.90;99.90
10390;DHT22;5241;47.830;12.972;2022-10-31T07:11:54;8.00;99.90
10390;DHT22;5241;47.830;12.972;2022-10-31T07:14:20;8.10;99.90
10390;DHT22;5241;47.830;12.972;2022-10-31T07:16:51;8.10;99.90
10390;DHT22;5241;47.830;12.972;2022-10-31T07:19:17;8.20;99.90
10390;DHT22;5241;47.830;12.972;2022-10-31T07:21:43;8.20;99.90
10390;DHT22;5241;47.830;12.972;2022-10-31T07:24:08;8.30;99.90
10390;DHT22;5241;47.830;12.972;2022-10-31T07:26:34;8.40;99.90
10390;DHT22;5241;47.830;12.972;2022-10-31T07:28:59;8.50;99.90
10390;DHT22;5241;47.830;12.972;2022-10-31T07:31:25;8.60;99.90
10390;DHT22;5241;47.830;12.972;2022-10-31T07:33:51;8.70;99.90
10390;DHT22;5241;47.830;12.972;2022-10-31T07:36:17;8.80;99.90
10390;DHT22;5241;47.830;12.972;2022-10-31T07:38:42;8.90;99.90
10390;DHT22;5241;47.830;12.972;2022-10-31T07:41:08;9.10;99.90
10390;DHT22;5241;47.830;12.972;2022-10-31T07:43:35;9.20;99.90
10390;DHT22;5241;47.830;12.972;2022-10-31T07:46:00;9.20;99.90
10390;DHT22;5241;47.830;12.972;2022-10-31T07:48:26;9.20;99.90
10390;DHT22;5241;47.830;12.972;2022-10-31T07:50:51;9.40;99.90
10390;DHT22;5241;47.830;12.972;2022-10-31T07:53:17;9.50;99.90
10390;DHT22;5241;47.830;12.972;2022-10-31T07:55:43;9.60;99.90
10390;DHT22;5241;47.830;12.972;2022-10-31T07:58:11;9.70;99.90
10390;DHT22;5241;47.830;12.972;2022-10-31T08:00:38;9.80;99.90
10390;DHT22;5241;47.830;12.972;2022-10-31T08:03:06;9.90;99.90
10390;DHT22;5241;47.830;12.972;2022-10-31T08:05:33;10.10;99.90
10390;DHT22;5241;47.830;12.972;2022-10-31T08:07:59;10.20;99.90
10390;DHT22;5241;47.830;12.972;2022-10-31T08:10:25;10.30;99.90
10390;DHT22;5241;47.830;12.972;2022-10-31T08:12:57;10.40;99.90
10390;DHT22;5241;47.830;12.972;2022-10-31T08:15:23;10.60;99.90
10390;DHT22;5241;47.830;12.972;2022-10-31T08:17:49;10.80;99.90
10390;DHT22;5241;47.830;12.972;2022-10-31T08:20:15;11.10;99.90
10390;DHT22;5241;47.830;12.972;2022-10-31T08:22:40;11.30;99.90
10390;DHT22;5241;47.830;12.972;2022-10-31T08:25:06;11.60;99.90
10390;DHT22;5241;47.830;12.972;2022-10-31T08:27:32;11.80;99.90
10390;DHT22;5241;47.830;12.972;2022-10-31T08:29:57;11.90;99.90
10390;DHT22;5241;47.830;12.972;2022-10-31T08:32:24;12.00;99.90
10390;DHT22;5241;47.830;12.972;2022-10-31T08:34:49;12.20;99.90
10390;DHT22;5241;47.830;12.972;2022-10-31T08:37:15;12.40;99.90
10390;DHT22;5241;47.830;12.972;2022-10-31T08:39:48;12.90;99.90
10390;DHT22;5241;47.830;12.972;2022-10-31T08:42:14;13.40;99.90
10390;DHT22;5241;47.830;12.972;2022-10-31T08:44:39;13.80;99.90
10390;DHT22;5241;47.830;12.972;2022-10-31T08:47:05;14.10;99.90
10390;DHT22;5241;47.830;12.972;2022-10-31T08:49:30;14.30;99.90
10390;DHT22;5241;47.830;12.972;2022-10-31T08:51:56;15.00;99.90
10390;DHT22;5241;47.830;12.972;2022-10-31T08:54:22;15.20;99.90
10390;DHT22;5241;47.830;12.972;2022-10-31T08:56:47;15.40;99.90
10390;DHT22;5241;47.830;12.972;2022-10-31T08:59:13;15.50;99.90
10390;DHT22;5241;47.830;12.972;2022-10-31T09:01:38;15.80;99.90
10390;DHT22;5241;47.830;12.972;2022-10-31T09:04:04;16.10;99.90
10390;DHT22;5241;47.830;12.972;2022-10-31T09:06:29;16.10;99.90
10390;DHT22;5241;47.830;12.972;2022-10-31T09:08:55;16.40;99.90
10390;DHT22;5241;47.830;12.972;2022-10-31T09:11:20;16.60;99.90
10390;DHT22;5241;47.830;12.972;2022-10-31T09:13:46;17.00;99.90
10390;DHT22;5241;47.830;12.972;2022-10-31T09:16:11;17.30;99.90
10390;DHT22;5241;47.830;12.972;2022-10-31T09:18:37;17.50;99.90
10390;DHT22;5241;47.830;12.972;2022-10-31T09:21:03;17.60;99.90
10390;DHT22;5241;47.830;12.972;2022-10-31T09:23:28;17.80;99.90
10390;DHT22;5241;47.830;12.972;2022-10-31T09:25:54;17.90;99.90
10390;DHT22;5241;47.830;12.972;2022-10-31T09:28:22;18.10;99.90
10390;DHT22;5241;47.830;12.972;2022-10-31T09:30:50;18.40;99.90
10390;DHT22;5241;47.830;12.972;2022-10-31T09:33:16;18.70;99.90
10390;DHT22;5241;47.830;12.972;2022-10-31T09:35:42;18.90;99.90
10390;DHT22;5241;47.830;12.972;2022-10-31T09:38:15;18.60;99.90
10390;DHT22;5241;47.830;12.972;2022-10-31T09:40:47;18.70;99.90
10390;DHT22;5241;47.830;12.972;2022-10-31T09:43:34;19.00;99.90
10390;DHT22;5241;47.830;12.972;2022-10-31T09:51:44;19.80;99.90
10390;DHT22;5241;47.830;12.972;2022-10-31T09:56:43;20.10;99.60
10390;DHT22;5241;47.830;12.972;2022-10-31T09:59:24;20.60;99.20
10390;DHT22;5241;47.830;12.972;2022-10-31T10:02:17;20.90;98.00
10390;DHT22;5241;47.830;12.972;2022-10-31T10:07:19;21.20;96.20
10390;DHT22;5241;47.830;12.972;2022-10-31T10:09:46;20.90;97.40
10390;DHT22;5241;47.830;12.972;2022-10-31T10:12:21;21.00;97.50
10390;DHT22;5241;47.830;12.972;2022-10-31T10:26:43;21.30;96.60
10390;DHT22;5241;47.830;12.972;2022-10-31T10:28:44;21.60;96.50
10390;DHT22;5241;47.830;12.972;2022-10-31T10:31:17;22.40;94.90
10390;DHT22;5241;47.830;12.972;2022-10-31T10:36:51;22.30;93.70
10390;DHT22;5241;47.830;12.972;2022-10-31T10:39:30;22.50;91.90
10390;DHT22;5241;47.830;12.972;2022-10-31T10:41:59;22.20;93.50
10390;DHT22;5241;47.830;12.972;2022-10-31T10:44:46;22.70;91.30
10390;DHT22;5241;47.830;12.972;2022-10-31T10:47:42;23.10;91.30
10390;DHT22;5241;47.830;12.972;2022-10-31T10:55:25;24.00;85.50
10390;DHT22;5241;47.830;12.972;2022-10-31T10:58:01;23.60;86.60
10390;DHT22;5241;47.830;12.972;2022-10-31T11:02:56;23.70;83.60
10390;DHT22;5241;47.830;12.972;2022-10-31T11:05:30;24.30;84.20
10390;DHT22;5241;47.830;12.972;2022-10-31T11:07:58;24.40;82.70
10390;DHT22;5241;47.830;12.972;2022-10-31T11:10:23;24.70;79.20
10390;DHT22;5241;47.830;12.972;2022-10-31T11:13:04;24.60;82.40
10390;DHT22;5241;47.830;12.972;2022-10-31T11:15:35;24.50;83.30
10390;DHT22;5241;47.830;12.972;2022-10-31T11:18:02;24.60;82.20
10390;DHT22;5241;47.830;12.972;2022-10-31T11:20:35;24.90;80.20
10390;DHT22;5241;47.830;12.972;2022-10-31T11:23:16;24.30;80.60
10390;DHT22;5241;47.830;12.972;2022-10-31T11:26:04;24.30;83.70
10390;DHT22;5241;47.830;12.972;2022-10-31T11:28:31;24.60;83.40
10390;DHT22;5241;47.830;12.972;2022-10-31T11:31:21;24.90;80.30
10390;DHT22;5241;47.830;12.972;2022-10-31T11:33:49;25.00;79.00
10390;DHT22;5241;47.830;12.972;2022-10-31T11:36:24;24.80;80.20
10390;DHT22;5241;47.830;12.972;2022-10-31T11:38:51;24.00;79.90
10390;DHT22;5241;47.830;12.972;2022-10-31T11:41:23;23.70;83.50
10390;DHT22;5241;47.830;12.972;2022-10-31T11:44:01;24.10;83.40
10390;DHT22;5241;47.830;12.972;2022-10-31T11:46:38;23.20;84.70
10390;DHT22;5241;47.830;12.972;2022-10-31T11:49:05;22.90;87.00
10390;DHT22;5241;47.830;12.972;2022-10-31T11:51:36;22.90;86.90
10390;DHT22;5241;47.830;12.972;2022-10-31T11:54:03;23.10;87.80
10390;DHT22;5241;47.830;12.972;2022-10-31T11:56:42;22.90;88.00
10390;DHT22;5241;47.830;12.972;2022-10-31T11:59:28;23.40;85.00
10390;DHT22;5241;47.830;12.972;2022-10-31T12:01:56;23.60;85.00
10390;DHT22;5241;47.830;12.972;2022-10-31T12:05:02;23.60;86.70
10390;DHT22;5241;47.830;12.972;2022-10-31T12:07:29;23.00;87.30
10390;DHT22;5241;47.830;12.972;2022-10-31T12:09:55;22.50;89.10
10390;DHT22;5241;47.830;12.972;2022-10-31T12:18:06;22.40;90.10
10390;DHT22;5241;47.830;12.972;2022-10-31T12:29:29;21.60;92.10
10390;DHT22;5241;47.830;12.972;2022-10-31T12:37:47;21.20;93.40
10390;DHT22;5241;47.830;12.972;2022-10-31T12:43:41;20.80;94.60
10390;DHT22;5241;47.830;12.972;2022-10-31T12:46:25;20.70;95.10
10390;DHT22;5241;47.830;12.972;2022-10-31T12:49:16;20.70;95.70
10390;DHT22;5241;47.830;12.972;2022-10-31T12:54:43;20.40;96.30
10390;DHT22;5241;47.830;12.972;2022-10-31T12:57:17;20.40;96.70
10390;DHT22;5241;47.830;12.972;2022-10-31T13:05:02;19.90;98.20
10390;DHT22;5241;47.830;12.972;2022-10-31T13:07:41;19.80;98.40
10390;DHT22;5241;47.830;12.972;2022-10-31T13:10:31;19.70;99.10
10390;DHT22;5241;47.830;12.972;2022-10-31T13:13:02;19.60;99.90
10390;DHT22;5241;47.830;12.972;2022-10-31T13:15:34;19.50;99.90
10390;DHT22;5241;47.830;12.972;2022-10-31T13:18:10;19.40;99.90
10390;DHT22;5241;47.830;12.972;2022-10-31T13:20:42;19.30;99.90
10390;DHT22;5241;47.830;12.972;2022-10-31T13:25:44;19.20;99.90
10390;DHT22;5241;47.830;12.972;2022-10-31T13:31:04;19.10;99.90
10390;DHT22;5241;47.830;12.972;2022-10-31T13:33:44;19.00;99.90
10390;DHT22;5241;47.830;12.972;2022-10-31T13:36:36;18.90;99.90
10390;DHT22;5241;47.830;12.972;2022-10-31T13:39:14;18.70;99.90
10390;DHT22;5241;47.830;12.972;2022-10-31T13:41:58;18.50;99.90
10390;DHT22;5241;47.830;12.972;2022-10-31T13:44:27;18.40;99.90
10390;DHT22;5241;47.830;12.972;2022-10-31T13:46:54;18.40;99.90
10390;DHT22;5241;47.830;12.972;2022-10-31T13:54:41;18.60;99.90
10390;DHT22;5241;47.830;12.972;2022-10-31T13:57:16;18.60;99.90
10390;DHT22;5241;47.830;12.972;2022-10-31T13:59:58;18.60;99.90
10390;DHT22;5241;47.830;12.972;2022-10-31T14:02:29;18.60;99.90
10390;DHT22;5241;47.830;12.972;2022-10-31T14:05:05;18.60;99.90
10390;DHT22;5241;47.830;12.972;2022-10-31T14:07:32;18.70;99.90
10390;DHT22;5241;47.830;12.972;2022-10-31T14:10:19;18.60;99.90
10390;DHT22;5241;47.830;12.972;2022-10-31T14:12:46;18.60;99.90
10390;DHT22;5241;47.830;12.972;2022-10-31T14:15:25;18.60;99.90
10390;DHT22;5241;47.830;12.972;2022-10-31T14:22:43;18.50;99.90
10390;DHT22;5241;47.830;12.972;2022-10-31T14:25:47;18.50;99.90
10390;DHT22;5241;47.830;12.972;2022-10-31T14:28:21;18.40;99.90
10390;DHT22;5241;47.830;12.972;2022-10-31T14:30:55;18.50;99.90
10390;DHT22;5241;47.830;12.972;2022-10-31T14:33:23;18.40;99.90
10390;DHT22;5241;47.830;12.972;2022-10-31T14:47:16;18.00;99.90
10390;DHT22;5241;47.830;12.972;2022-10-31T14:52:48;17.90;99.90
10390;DHT22;5241;47.830;12.972;2022-10-31T14:55:15;17.60;99.90
10390;DHT22;5241;47.830;12.972;2022-10-31T14:57:50;17.50;99.90
10390;DHT22;5241;47.830;12.972;2022-10-31T15:00:20;17.40;99.90
10390;DHT22;5241;47.830;12.972;2022-10-31T15:05:27;17.00;99.90
10390;DHT22;5241;47.830;12.972;2022-10-31T15:07:55;16.90;99.90
10390;DHT22;5241;47.830;12.972;2022-10-31T15:10:30;16.80;99.90
10390;DHT22;5241;47.830;12.972;2022-10-31T15:13:17;16.70;99.90
10390;DHT22;5241;47.830;12.972;2022-10-31T15:15:43;16.60;99.90
10390;DHT22;5241;47.830;12.972;2022-10-31T15:18:16;16.60;99.90
10390;DHT22;5241;47.830;12.972;2022-10-31T15:20:44;16.50;99.90
10390;DHT22;5241;47.830;12.972;2022-10-31T15:23:15;16.60;99.90
10390;DHT22;5241;47.830;12.972;2022-10-31T15:25:42;16.40;99.90
10390;DHT22;5241;47.830;12.972;2022-10-31T15:28:15;16.40;99.90
10390;DHT22;5241;47.830;12.972;2022-10-31T15:30:50;16.20;99.90
10390;DHT22;5241;47.830;12.972;2022-10-31T15:33:30;16.10;99.90
10390;DHT22;5241;47.830;12.972;2022-10-31T15:36:00;16.00;99.90
10390;DHT22;5241;47.830;12.972;2022-10-31T15:38:27;15.90;99.90
10390;DHT22;5241;47.830;12.972;2022-10-31T15:41:05;15.80;99.90
10390;DHT22;5241;47.830;12.972;2022-10-31T15:43:39;15.80;99.90
10390;DHT22;5241;47.830;12.972;2022-10-31T15:46:07;15.60;99.90
10390;DHT22;5241;47.830;12.972;2022-10-31T15:48:34;15.60;99.90
10390;DHT22;5241;47.830;12.972;2022-10-31T15:51:01;15.60;99.90
10390;DHT22;5241;47.830;12.972;2022-10-31T15:53:41;15.50;99.90
10390;DHT22;5241;47.830;12.972;2022-10-31T15:56:12;15.30;99.90
10390;DHT22;5241;47.830;12.972;2022-10-31T15:58:44;15.20;99.90
10390;DHT22;5241;47.830;12.972;2022-10-31T16:01:30;15.10;99.90
10390;DHT22;5241;47.830;12.972;2022-10-31T16:06:35;14.90;99.90
10390;DHT22;5241;47.830;12.972;2022-10-31T16:09:02;14.90;99.90
10390;DHT22;5241;47.830;12.972;2022-10-31T16:11:36;14.80;99.90
10390;DHT22;5241;47.830;12.972;2022-10-31T16:14:06;14.80;99.90
10390;DHT22;5241;47.830;12.972;2022-10-31T16:16:39;14.70;99.90
10390;DHT22;5241;47.830;12.972;2022-10-31T16:19:11;14.60;99.90
10390;DHT22;5241;47.830;12.972;2022-10-31T16:21:40;14.60;99.90
10390;DHT22;5241;47.830;12.972;2022-10-31T16:26:50;14.50;99.90
10390;DHT22;5241;47.830;12.972;2022-10-31T16:29:43;14.40;99.90
10390;DHT22;5241;47.830;12.972;2022-10-31T16:37:40;14.20;99.90
10390;DHT22;5241;47.830;12.972;2022-10-31T16:40:06;14.10;99.90
10390;DHT22;5241;47.830;12.972;2022-10-31T16:42:32;14.00;99.90
10390;DHT22;5241;47.830;12.972;2022-10-31T16:44:58;13.90;99.90
10390;DHT22;5241;47.830;12.972;2022-10-31T16:47:24;13.90;99.90
10390;DHT22;5241;47.830;12.972;2022-10-31T16:49:49;13.90;99.90
10390;DHT22;5241;47.830;12.972;2022-10-31T16:52:18;13.90;99.90
10390;DHT22;5241;47.830;12.972;2022-10-31T16:54:44;13.70;99.90
10390;DHT22;5241;47.830;12.972;2022-10-31T16:57:18;13.70;99.90
10390;DHT22;5241;47.830;12.972;2022-10-31T16:59:48;13.70;99.90
10390;DHT22;5241;47.830;12.972;2022-10-31T17:02:17;13.70;99.90
10390;DHT22;5241;47.830;12.972;2022-10-31T17:04:42;13.70;99.90
10390;DHT22;5241;47.830;12.972;2022-10-31T17:07:09;13.70;99.90
10390;DHT22;5241;47.830;12.972;2022-10-31T17:09:34;13.60;99.90
10390;DHT22;5241;47.830;12.972;2022-10-31T17:12:00;13.60;99.90
10390;DHT22;5241;47.830;12.972;2022-10-31T17:14:25;13.50;99.90
10390;DHT22;5241;47.830;12.972;2022-10-31T17:16:51;13.40;99.90
10390;DHT22;5241;47.830;12.972;2022-10-31T17:19:17;13.40;99.90
10390;DHT22;5241;47.830;12.972;2022-10-31T17:21:42;13.30;99.90
10390;DHT22;5241;47.830;12.972;2022-10-31T17:24:12;13.30;99.90
10390;DHT22;5241;47.830;12.972;2022-10-31T17:26:37;13.20;99.90
10390;DHT22;5241;47.830;12.972;2022-10-31T17:29:03;13.20;99.90
10390;DHT22;5241;47.830;12.972;2022-10-31T17:31:30;13.20;99.90
10390;DHT22;5241;47.830;12.972;2022-10-31T17:33:57;13.20;99.90
10390;DHT22;5241;47.830;12.972;2022-10-31T17:36:24;13.30;99.90
10390;DHT22;5241;47.830;12.972;2022-10-31T17:38:50;13.20;99.90
10390;DHT22;5241;47.830;12.972;2022-10-31T17:41:15;13.10;99.90
10390;DHT22;5241;47.830;12.972;2022-10-31T17:43:41;13.10;99.90
10390;DHT22;5241;47.830;12.972;2022-10-31T17:46:07;13.00;99.90
10390;DHT22;5241;47.830;12.972;2022-10-31T17:48:36;13.10;99.90
10390;DHT22;5241;47.830;12.972;2022-10-31T17:51:03;13.10;99.90
10390;DHT22;5241;47.830;12.972;2022-10-31T17:53:30;13.30;99.90
10390;DHT22;5241;47.830;12.972;2022-10-31T17:56:05;13.40;99.90
10390;DHT22;5241;47.830;12.972;2022-10-31T17:58:33;13.60;99.90
10390;DHT22;5241;47.830;12.972;2022-10-31T18:00:59;13.70;99.90
10390;DHT22;5241;47.830;12.972;2022-10-31T18:03:26;13.70;99.90
10390;DHT22;5241;47.830;12.972;2022-10-31T18:05:56;13.70;99.90
10390;DHT22;5241;47.830;12.972;2022-10-31T18:08:29;13.60;99.90
10390;DHT22;5241;47.830;12.972;2022-10-31T18:10:55;13.50;99.90